Time;durP1;ratioP1;P1;durP2;ratioP2;P2;SDS_P1;SDS_P2;PMS_P1;PMS_P2;Temp;Humidity;BMP_temperature;BMP_pressure;BME280_temperature;BME280_humidity;BME280_pressure;Samples;Min_cycle;Max_cycle;Signal;HPM_P1;HPM_P2
2022/11/18 00:00:12;;;;;;;76.70;32.83;;;;;;;;;;1027855;28;20038;-75
2022/11/18 00:00:43;;;;;;;78.25;32.55;;;;;;;;;;1028122;28;20031;-75
2022/11/18 00:01:15;;;;;;;73.90;33.65;;;;;;;;;;1031865;28;20018;-75
2022/11/18 00:01:46;;;;;;;67.45;30.77;;;;;;;;;;1031494;28;20038;-75
2022/11/18 00:02:17;;;;;;;79.50;34.45;;;;;;;;;;1031951;28;20078;-75
2022/11/18 00:02:47;;;;;;;86.47;36.65;;;;;;;;;;1028386;28;20454;-75
2022/11/18 00:03:18;;;;;;;76.10;32.58;;;;;;;;;;1028619;28;20023;-75
2022/11/18 00:03:49;;;;;;;76.05;31.65;;;;;;;;;;1027590;28;20026;-75
2022/11/18 00:04:21;;;;;;;65.93;31.83;;;;;;;;;;1026443;28;20019;-75
2022/11/18 00:04:52;;;;;;;82.38;35.85;;;;;;;;;;1027987;28;20026;-75
2022/11/18 00:05:23;;;;;;;77.13;35.53;;;;;;;;;;1028233;28;20023;-75
2022/11/18 00:05:54;;;;;;;87.75;35.53;;;;;;;;;;1028016;28;20026;-75
2022/11/18 00:06:26;;;;;;;83.53;32.65;;;;;;;;;;1027666;28;20026;-75
2022/11/18 00:06:57;;;;;;;79.00;34.63;;;;;;;;;;1026066;28;20023;-75
2022/11/18 00:07:27;;;;;;;81.35;33.30;;;;;;;;;;1032657;28;20022;-73
2022/11/18 00:07:58;;;;;;;71.85;33.85;;;;;;;;;;1029964;28;20037;-75
2022/11/18 00:08:30;;;;;;;85.70;36.80;;;;;;;;;;1030850;28;20022;-75
2022/11/18 00:09:03;;;;;;;68.05;32.63;;;;;;;;;;1033122;28;20065;-75
2022/11/18 00:09:33;;;;;;;89.60;37.63;;;;;;;;;;1032588;28;20034;-75
2022/11/18 00:10:05;;;;;;;78.85;32.97;;;;;;;;;;1031684;28;20069;-75
2022/11/18 00:10:40;;;;;;;81.35;34.28;;;;;;;;;;1031385;28;20034;-75
2022/11/18 00:11:12;;;;;;;79.85;34.72;;;;;;;;;;1027950;28;20865;-75
2022/11/18 00:14:19;;;;;;;87.82;33.05;;;;;;;;;;1035308;28;20018;-75
2022/11/18 00:14:50;;;;;;;97.85;32.95;;;;;;;;;;1035604;28;20827;-75
2022/11/18 00:15:21;;;;;;;66.63;31.70;;;;;;;;;;1035554;28;20014;-76
2022/11/18 00:16:02;;;;;;;78.57;32.13;;;;;;;;;;1035742;28;20556;-76
2022/11/18 00:16:33;;;;;;;84.55;33.05;;;;;;;;;;1035858;28;20414;-76
2022/11/18 00:17:04;;;;;;;60.10;28.65;;;;;;;;;;1035925;28;20081;-76
2022/11/18 00:17:35;;;;;;;62.65;27.83;;;;;;;;;;1035763;28;20025;-75
2022/11/18 00:18:07;;;;;;;70.63;29.15;;;;;;;;;;1031781;28;20443;-75
2022/11/18 00:18:38;;;;;;;71.60;30.70;;;;;;;;;;1031598;28;20088;-75
2022/11/18 00:19:09;;;;;;;66.45;25.88;;;;;;;;;;1031848;28;20499;-75
2022/11/18 00:19:40;;;;;;;77.20;29.98;;;;;;;;;;1032660;28;20022;-75
2022/11/18 00:20:10;;;;;;;73.53;30.27;;;;;;;;;;1031980;28;20138;-75
2022/11/18 00:20:44;;;;;;;83.20;32.67;;;;;;;;;;1032861;28;20029;-75
2022/11/18 00:21:15;;;;;;;57.78;25.90;;;;;;;;;;1031667;28;20149;-75
2022/11/18 00:21:46;;;;;;;52.33;27.90;;;;;;;;;;1031501;28;20026;-76
2022/11/18 00:22:16;;;;;;;67.03;28.23;;;;;;;;;;1033470;28;20096;-76
2022/11/18 00:22:47;;;;;;;69.38;26.88;;;;;;;;;;1031516;28;20070;-76
2022/11/18 00:23:18;;;;;;;60.72;27.02;;;;;;;;;;1028104;28;20121;-76
2022/11/18 00:23:51;;;;;;;55.03;27.10;;;;;;;;;;1027676;28;20031;-76
2022/11/18 00:24:22;;;;;;;52.17;24.20;;;;;;;;;;1028478;28;20026;-76
2022/11/18 00:24:53;;;;;;;66.07;23.30;;;;;;;;;;1031198;28;20038;-75
2022/11/18 00:25:24;;;;;;;57.22;23.20;;;;;;;;;;1031662;28;20022;-76
2022/11/18 00:25:54;;;;;;;45.75;23.75;;;;;;;;;;1031950;28;20061;-76
2022/11/18 00:26:25;;;;;;;55.08;22.88;;;;;;;;;;1030705;28;20018;-76
2022/11/18 00:26:56;;;;;;;64.00;23.48;;;;;;;;;;1029818;28;20077;-75
2022/11/18 00:27:33;;;;;;;56.47;25.35;;;;;;;;;;1032230;28;20061;-75
2022/11/18 00:28:04;;;;;;;45.42;20.52;;;;;;;;;;1034122;28;20509;-75
2022/11/18 00:28:35;;;;;;;43.08;21.90;;;;;;;;;;1032820;28;20110;-75
2022/11/18 00:29:10;;;;;;;46.55;21.58;;;;;;;;;;1028697;28;20524;-75
2022/11/18 00:29:41;;;;;;;46.40;20.73;;;;;;;;;;1031757;28;20018;-75
2022/11/18 00:30:12;;;;;;;50.33;21.25;;;;;;;;;;1030886;28;20031;-75
2022/11/18 00:30:43;;;;;;;44.78;21.95;;;;;;;;;;1032014;28;20109;-75
2022/11/18 00:31:13;;;;;;;50.85;20.90;;;;;;;;;;1034717;28;20113;-75
2022/11/18 00:31:45;;;;;;;46.20;20.67;;;;;;;;;;1033790;28;20092;-75
2022/11/18 00:32:16;;;;;;;49.90;24.38;;;;;;;;;;1031906;28;20482;-76
2022/11/18 00:32:47;;;;;;;41.33;19.55;;;;;;;;;;1035322;28;20498;-76
2022/11/18 00:33:18;;;;;;;50.13;22.33;;;;;;;;;;1034182;28;20041;-76
2022/11/18 00:33:48;;;;;;;48.15;21.13;;;;;;;;;;1032180;28;20033;-76
2022/11/18 00:34:19;;;;;;;49.55;22.02;;;;;;;;;;1030295;28;20035;-76
2022/11/18 00:34:50;;;;;;;48.80;22.13;;;;;;;;;;1027526;28;20402;-76
2022/11/18 00:35:20;;;;;;;52.10;23.83;;;;;;;;;;1028072;28;20029;-76
2022/11/18 00:35:54;;;;;;;48.85;23.95;;;;;;;;;;1031666;28;20677;-76
2022/11/18 00:36:25;;;;;;;41.72;21.27;;;;;;;;;;1035027;28;20153;-76
2022/11/18 00:36:56;;;;;;;43.22;22.90;;;;;;;;;;1035748;28;20052;-76
2022/11/18 00:37:27;;;;;;;52.28;25.23;;;;;;;;;;1031805;28;20033;-76
2022/11/18 00:37:58;;;;;;;45.80;24.75;;;;;;;;;;1031708;28;20113;-76
2022/11/18 00:38:29;;;;;;;50.47;23.40;;;;;;;;;;1031975;28;20099;-76
2022/11/18 00:39:00;;;;;;;51.58;21.73;;;;;;;;;;1035834;28;20025;-76
2022/11/18 00:39:31;;;;;;;54.03;22.67;;;;;;;;;;1035970;28;20120;-76
2022/11/18 00:40:01;;;;;;;51.05;23.42;;;;;;;;;;1035255;28;20044;-76
2022/11/18 00:40:32;;;;;;;61.20;25.05;;;;;;;;;;1035764;28;20032;-76
2022/11/18 00:41:04;;;;;;;50.42;26.13;;;;;;;;;;1035283;28;20497;-75
2022/11/18 00:43:13;;;;;;;59.53;23.30;;;;;;;;;;1035940;28;20521;-75
2022/11/18 00:43:45;;;;;;;64.45;25.33;;;;;;;;;;1035023;28;20026;-75
2022/11/18 00:44:16;;;;;;;53.80;26.58;;;;;;;;;;1035960;28;20077;-75
2022/11/18 00:44:47;;;;;;;58.83;25.90;;;;;;;;;;1035528;28;20081;-75
2022/11/18 00:45:22;;;;;;;47.97;24.63;;;;;;;;;;1035451;28;20024;-75
2022/11/18 00:45:53;;;;;;;51.40;24.55;;;;;;;;;;1034334;28;20060;-75
2022/11/18 00:46:23;;;;;;;47.42;23.67;;;;;;;;;;1033128;28;20505;-75
2022/11/18 00:46:54;;;;;;;50.50;25.20;;;;;;;;;;1025659;28;20070;-75
2022/11/18 00:47:25;;;;;;;46.47;22.88;;;;;;;;;;1027086;28;20026;-75
2022/11/18 00:47:56;;;;;;;56.88;25.08;;;;;;;;;;1028143;28;20540;-75
2022/11/18 00:48:27;;;;;;;49.97;23.55;;;;;;;;;;1027653;28;20027;-75
2022/11/18 00:48:57;;;;;;;57.40;24.85;;;;;;;;;;1031898;28;20037;-75
2022/11/18 00:49:28;;;;;;;56.25;21.48;;;;;;;;;;1035933;28;20021;-75
2022/11/18 00:49:59;;;;;;;57.90;24.50;;;;;;;;;;1035564;28;20180;-75
2022/11/18 00:50:32;;;;;;;50.17;25.25;;;;;;;;;;1031545;28;20081;-75
2022/11/18 00:51:28;;;;;;;50.35;24.25;;;;;;;;;;1031757;28;20026;-75
2022/11/18 00:52:00;;;;;;;47.50;23.08;;;;;;;;;;1027651;28;20034;-75
2022/11/18 00:52:31;;;;;;;54.55;23.90;;;;;;;;;;1031062;28;20430;-75
2022/11/18 00:53:01;;;;;;;57.13;26.27;;;;;;;;;;1027543;28;20113;-75
2022/11/18 00:53:32;;;;;;;45.83;19.98;;;;;;;;;;1028065;28;20038;-75
2022/11/18 00:54:03;;;;;;;45.55;22.05;;;;;;;;;;1031702;28;20027;-75
2022/11/18 00:54:34;;;;;;;50.03;22.67;;;;;;;;;;1035580;28;20137;-75
2022/11/18 00:55:05;;;;;;;55.50;22.40;;;;;;;;;;1035788;28;20096;-75
2022/11/18 00:55:35;;;;;;;51.10;24.50;;;;;;;;;;1032940;28;20460;-75
2022/11/18 00:56:06;;;;;;;49.70;23.23;;;;;;;;;;1032727;28;20140;-75
2022/11/18 00:56:37;;;;;;;44.20;22.77;;;;;;;;;;1027862;28;20073;-75
2022/11/18 00:57:08;;;;;;;44.47;21.83;;;;;;;;;;1026893;28;20514;-75
2022/11/18 00:57:38;;;;;;;42.97;20.05;;;;;;;;;;1032288;28;20137;-75
2022/11/18 00:58:13;;;;;;;44.33;20.70;;;;;;;;;;1031622;28;20498;-75
2022/11/18 00:58:43;;;;;;;46.92;23.50;;;;;;;;;;1035759;28;20124;-75
2022/11/18 00:59:14;;;;;;;45.80;19.95;;;;;;;;;;1035967;28;20112;-75
2022/11/18 00:59:45;;;;;;;41.83;21.17;;;;;;;;;;1034954;28;20068;-75
2022/11/18 01:00:15;;;;;;;41.85;18.55;;;;;;;;;;1032527;28;20026;-75
2022/11/18 01:00:49;;;;;;;39.17;20.08;;;;;;;;;;1031395;28;20027;-75
2022/11/18 01:01:20;;;;;;;43.03;21.05;;;;;;;;;;1036428;28;20093;-75
2022/11/18 01:01:51;;;;;;;49.10;22.33;;;;;;;;;;1036135;28;20556;-75
2022/11/18 01:02:22;;;;;;;44.63;19.85;;;;;;;;;;1035427;28;20022;-75
2022/11/18 01:02:53;;;;;;;48.33;21.85;;;;;;;;;;1034746;28;20548;-75
2022/11/18 01:03:24;;;;;;;44.10;20.58;;;;;;;;;;1035812;28;20096;-76
2022/11/18 01:03:55;;;;;;;42.55;18.25;;;;;;;;;;1031574;28;20025;-75
2022/11/18 01:04:26;;;;;;;46.92;19.17;;;;;;;;;;1028287;28;20015;-75
2022/11/18 01:05:05;;;;;;;42.10;18.58;;;;;;;;;;1031730;28;20087;-75
2022/11/18 01:05:37;;;;;;;41.70;19.58;;;;;;;;;;1029888;28;20121;-75
2022/11/18 01:06:07;;;;;;;44.53;20.30;;;;;;;;;;1028963;28;20126;-75
2022/11/18 01:06:38;;;;;;;39.83;18.15;;;;;;;;;;1031989;28;20478;-75
2022/11/18 01:07:09;;;;;;;42.67;19.00;;;;;;;;;;1031997;28;20109;-75
2022/11/18 01:07:39;;;;;;;40.38;18.55;;;;;;;;;;1035681;28;20026;-75
2022/11/18 01:08:11;;;;;;;36.88;17.50;;;;;;;;;;1036021;28;20040;-75
2022/11/18 01:08:42;;;;;;;39.25;19.88;;;;;;;;;;1035752;28;20113;-75
2022/11/18 01:09:12;;;;;;;38.25;18.00;;;;;;;;;;1035702;28;20025;-75
2022/11/18 01:09:43;;;;;;;43.17;17.33;;;;;;;;;;1037025;28;20413;-75
2022/11/18 01:10:15;;;;;;;43.83;18.13;;;;;;;;;;1032808;28;20076;-75
2022/11/18 01:10:46;;;;;;;49.80;18.17;;;;;;;;;;1032303;28;20034;-75
2022/11/18 01:13:49;;;;;;;45.38;17.15;;;;;;;;;;1035764;28;20489;-76
2022/11/18 01:14:22;;;;;;;35.25;17.58;;;;;;;;;;1036970;28;20030;-76
2022/11/18 01:14:53;;;;;;;33.72;16.63;;;;;;;;;;1034998;28;20026;-75
2022/11/18 01:15:24;;;;;;;36.28;18.05;;;;;;;;;;1036278;28;20018;-75
2022/11/18 01:15:56;;;;;;;36.30;18.38;;;;;;;;;;1036048;28;20499;-75
2022/11/18 01:16:27;;;;;;;37.72;17.95;;;;;;;;;;1036170;28;20081;-75
2022/11/18 01:16:57;;;;;;;42.17;19.75;;;;;;;;;;1036734;28;20025;-75
2022/11/18 01:17:31;;;;;;;41.45;17.75;;;;;;;;;;1036512;28;20036;-75
2022/11/18 01:18:02;;;;;;;38.20;18.80;;;;;;;;;;1035495;28;20084;-75
2022/11/18 01:18:32;;;;;;;43.45;20.42;;;;;;;;;;1035580;28;20087;-76
2022/11/18 01:19:03;;;;;;;45.42;20.25;;;;;;;;;;1029679;28;20031;-76
2022/11/18 01:19:33;;;;;;;39.75;17.25;;;;;;;;;;1029882;28;20421;-76
2022/11/18 01:20:04;;;;;;;43.88;20.42;;;;;;;;;;1026235;28;20046;-76
2022/11/18 01:20:35;;;;;;;38.80;19.08;;;;;;;;;;1031040;28;20164;-76
2022/11/18 01:21:06;;;;;;;41.72;19.38;;;;;;;;;;1035028;28;20025;-76
2022/11/18 01:21:36;;;;;;;47.25;20.02;;;;;;;;;;1031535;28;20041;-76
2022/11/18 01:22:07;;;;;;;44.30;19.13;;;;;;;;;;1035457;28;20025;-75
2022/11/18 01:22:37;;;;;;;36.75;18.92;;;;;;;;;;1044227;23;20128;-77
2022/11/18 01:23:08;;;;;;;43.55;17.83;;;;;;;;;;1038401;28;20036;-75
2022/11/18 01:23:39;;;;;;;38.22;18.23;;;;;;;;;;1039144;28;20028;-75
2022/11/18 01:24:09;;;;;;;45.67;18.15;;;;;;;;;;1040503;28;20028;-75
2022/11/18 01:24:40;;;;;;;32.50;17.00;;;;;;;;;;1038477;28;20497;-75
2022/11/18 01:25:11;;;;;;;53.20;19.40;;;;;;;;;;1035562;28;20029;-75
2022/11/18 01:25:42;;;;;;;37.03;17.60;;;;;;;;;;1035146;28;20480;-75
2022/11/18 01:26:14;;;;;;;34.83;17.00;;;;;;;;;;1034875;28;20092;-75
2022/11/18 01:26:44;;;;;;;37.00;17.27;;;;;;;;;;1035451;28;20105;-75
2022/11/18 01:27:15;;;;;;;38.65;19.52;;;;;;;;;;1039415;28;20046;-76
2022/11/18 01:27:45;;;;;;;38.20;18.55;;;;;;;;;;1038151;28;20557;-76
2022/11/18 01:28:17;;;;;;;45.08;20.77;;;;;;;;;;1036863;28;20021;-76
2022/11/18 01:28:47;;;;;;;54.55;20.92;;;;;;;;;;1037044;28;20489;-76
2022/11/18 01:29:18;;;;;;;49.05;20.70;;;;;;;;;;1028945;28;20026;-76
2022/11/18 01:29:48;;;;;;;52.88;23.70;;;;;;;;;;1032591;28;20034;-76
2022/11/18 01:30:20;;;;;;;57.08;24.25;;;;;;;;;;1036468;28;20018;-76
2022/11/18 01:30:51;;;;;;;52.33;21.65;;;;;;;;;;1035631;28;20030;-76
2022/11/18 01:31:22;;;;;;;53.85;20.88;;;;;;;;;;1036243;28;20021;-76
2022/11/18 01:31:53;;;;;;;41.20;21.10;;;;;;;;;;1036224;28;20025;-76
2022/11/18 01:32:24;;;;;;;49.88;23.15;;;;;;;;;;1034103;28;20102;-76
2022/11/18 01:32:54;;;;;;;54.65;23.63;;;;;;;;;;1034388;28;20449;-76
2022/11/18 01:33:26;;;;;;;64.18;24.30;;;;;;;;;;1036672;28;20498;-76
2022/11/18 01:33:58;;;;;;;57.05;24.33;;;;;;;;;;1037473;28;20029;-75
2022/11/18 01:34:29;;;;;;;55.15;22.33;;;;;;;;;;1039808;28;20033;-75
2022/11/18 01:34:59;;;;;;;41.92;21.30;;;;;;;;;;1039600;28;20033;-75
2022/11/18 01:35:37;;;;;;;68.55;23.60;;;;;;;;;;1041176;28;20037;-75
2022/11/18 01:36:19;;;;;;;51.72;21.27;;;;;;;;;;1035952;28;20026;-75
2022/11/18 01:36:51;;;;;;;60.65;22.48;;;;;;;;;;1033629;28;20026;-76
2022/11/18 01:37:22;;;;;;;66.40;24.20;;;;;;;;;;1036521;28;20017;-76
2022/11/18 01:37:53;;;;;;;68.75;22.85;;;;;;;;;;1038599;28;20097;-75
2022/11/18 01:38:23;;;;;;;65.35;24.85;;;;;;;;;;1035557;28;20137;-75
2022/11/18 01:38:55;;;;;;;64.07;27.02;;;;;;;;;;1033274;28;20500;-75
2022/11/18 01:39:26;;;;;;;63.08;27.35;;;;;;;;;;1028544;28;20117;-75
2022/11/18 01:39:57;;;;;;;64.45;27.02;;;;;;;;;;1034162;28;20029;-75
2022/11/18 01:40:28;;;;;;;66.97;28.33;;;;;;;;;;1038059;28;20076;-76
2022/11/18 01:40:58;;;;;;;71.72;28.83;;;;;;;;;;1035476;28;20025;-74
2022/11/18 01:41:29;;;;;;;66.68;28.85;;;;;;;;;;1035698;28;20025;-74
2022/11/18 01:42:00;;;;;;;77.88;28.48;;;;;;;;;;1037324;28;20507;-75
2022/11/18 01:42:31;;;;;;;59.03;27.58;;;;;;;;;;1034941;28;20116;-74
2022/11/18 01:43:01;;;;;;;82.10;28.60;;;;;;;;;;1036074;28;20529;-75
2022/11/18 01:43:46;;;;;;;75.45;31.15;;;;;;;;;;1035478;28;20026;-74
2022/11/18 01:44:35;;;;;;;77.72;27.55;;;;;;;;;;1037019;28;20575;-74
2022/11/18 01:45:24;;;;;;;68.38;27.00;;;;;;;;;;1039000;28;20068;-74
2022/11/18 01:45:55;;;;;;;68.97;28.30;;;;;;;;;;1036540;28;20509;-75
2022/11/18 01:46:26;;;;;;;69.68;27.80;;;;;;;;;;1035872;28;20034;-75
2022/11/18 01:46:57;;;;;;;76.13;26.88;;;;;;;;;;1038767;28;20113;-75
2022/11/18 01:47:30;;;;;;;69.93;30.05;;;;;;;;;;1039764;28;20029;-75
2022/11/18 01:48:04;;;;;;;72.10;26.27;;;;;;;;;;1039425;28;20021;-76
2022/11/18 01:48:35;;;;;;;60.20;26.65;;;;;;;;;;1039208;28;20493;-74
2022/11/18 01:49:08;;;;;;;67.78;27.38;;;;;;;;;;1040004;28;20464;-75
2022/11/18 01:49:38;;;;;;;74.40;29.05;;;;;;;;;;1039384;28;20040;-74
2022/11/18 01:50:09;;;;;;;73.43;29.85;;;;;;;;;;1039572;28;20036;-74
2022/11/18 01:50:46;;;;;;;72.40;29.23;;;;;;;;;;1039886;28;20025;-75
2022/11/18 01:51:18;;;;;;;84.40;31.13;;;;;;;;;;1039544;28;20021;-75
2022/11/18 01:51:55;;;;;;;84.90;33.38;;;;;;;;;;1040064;28;20084;-75
2022/11/18 01:52:26;;;;;;;84.68;32.53;;;;;;;;;;1040282;28;20025;-75
2022/11/18 01:52:58;;;;;;;84.75;31.52;;;;;;;;;;1039974;28;20600;-75
2022/11/18 01:53:31;;;;;;;85.97;34.35;;;;;;;;;;1038729;28;20021;-76
2022/11/18 01:54:05;;;;;;;82.20;34.03;;;;;;;;;;1036768;28;20596;-75
2022/11/18 01:54:38;;;;;;;80.43;32.47;;;;;;;;;;1035170;28;20032;-75
2022/11/18 01:55:13;;;;;;;75.95;32.55;;;;;;;;;;1032006;28;20029;-75
2022/11/18 01:55:47;;;;;;;93.18;34.13;;;;;;;;;;1033156;28;20068;-75
2022/11/18 01:56:19;;;;;;;94.35;34.72;;;;;;;;;;1038308;28;20033;-75
2022/11/18 01:56:52;;;;;;;104.45;37.97;;;;;;;;;;1036218;28;20045;-77
2022/11/18 01:57:26;;;;;;;92.65;33.45;;;;;;;;;;1038604;28;20033;-76
2022/11/18 01:58:02;;;;;;;86.20;34.50;;;;;;;;;;1039551;28;20051;-75
2022/11/18 01:58:37;;;;;;;86.32;39.13;;;;;;;;;;1037878;28;20052;-75
2022/11/18 01:59:10;;;;;;;80.65;35.05;;;;;;;;;;1039576;28;20544;-75
2022/11/18 01:59:43;;;;;;;97.95;38.03;;;;;;;;;;1040055;28;20026;-75
2022/11/18 02:00:14;;;;;;;88.90;37.42;;;;;;;;;;1040041;28;20025;-76
2022/11/18 02:00:45;;;;;;;92.00;38.22;;;;;;;;;;1035075;28;20021;-75
2022/11/18 02:01:16;;;;;;;89.47;36.67;;;;;;;;;;1031222;28;20121;-75
2022/11/18 02:01:47;;;;;;;83.05;35.35;;;;;;;;;;1029506;28;20407;-76
2022/11/18 02:02:19;;;;;;;85.95;36.58;;;;;;;;;;1034191;28;20343;-76
2022/11/18 02:02:50;;;;;;;95.47;36.90;;;;;;;;;;1032407;28;20064;-76
2022/11/18 02:03:22;;;;;;;86.82;35.17;;;;;;;;;;1031756;28;20028;-75
2022/11/18 02:03:53;;;;;;;86.32;32.63;;;;;;;;;;1034144;28;20018;-77
2022/11/18 02:04:24;;;;;;;82.22;36.13;;;;;;;;;;1035654;28;20053;-75
2022/11/18 02:04:55;;;;;;;93.03;37.78;;;;;;;;;;1040039;28;20182;-75
2022/11/18 02:05:27;;;;;;;84.78;36.20;;;;;;;;;;1037992;28;20120;-75
2022/11/18 02:05:58;;;;;;;89.20;39.10;;;;;;;;;;1035694;28;20132;-76
2022/11/18 02:06:29;;;;;;;89.50;36.53;;;;;;;;;;1035741;28;20022;-76
2022/11/18 02:07:00;;;;;;;91.00;38.13;;;;;;;;;;1034095;28;20037;-77
2022/11/18 02:07:36;;;;;;;88.10;38.00;;;;;;;;;;1029954;28;20030;-76
2022/11/18 02:08:07;;;;;;;83.57;35.40;;;;;;;;;;1035344;28;20025;-73
2022/11/18 02:08:39;;;;;;;82.45;34.85;;;;;;;;;;1034823;28;20018;-75
2022/11/18 02:09:09;;;;;;;85.97;34.22;;;;;;;;;;1032297;28;20038;-74
2022/11/18 02:09:41;;;;;;;95.05;39.58;;;;;;;;;;1035205;28;20033;-74
2022/11/18 02:10:17;;;;;;;97.40;43.38;;;;;;;;;;1034986;28;20080;-76
2022/11/18 02:10:48;;;;;;;78.93;33.47;;;;;;;;;;1033943;28;20139;-75
2022/11/18 02:12:09;;;;;;;88.53;37.60;;;;;;;;;;1039290;28;20021;-75
2022/11/18 02:12:40;;;;;;;78.07;34.83;;;;;;;;;;1038039;28;20017;-75
2022/11/18 02:13:11;;;;;;;85.10;35.28;;;;;;;;;;1038367;28;20678;-75
2022/11/18 02:13:42;;;;;;;85.38;35.78;;;;;;;;;;1035346;28;20029;-75
2022/11/18 02:14:13;;;;;;;90.65;39.35;;;;;;;;;;1034931;28;20048;-75
2022/11/18 02:14:45;;;;;;;101.35;42.67;;;;;;;;;;1036033;28;20190;-74
2022/11/18 02:15:19;;;;;;;98.75;41.55;;;;;;;;;;1038888;28;20421;-76
2022/11/18 02:15:56;;;;;;;85.75;37.65;;;;;;;;;;1039383;28;20017;-76
2022/11/18 02:16:49;;;;;;;90.70;38.58;;;;;;;;;;1039336;28;20475;-76
2022/11/18 02:17:38;;;;;;;104.03;41.92;;;;;;;;;;1039493;28;20022;-77
2022/11/18 02:18:27;;;;;;;105.05;39.97;;;;;;;;;;1039199;28;20022;-75
2022/11/18 02:19:03;;;;;;;160.93;63.15;;;;;;;;;;1039424;28;20398;-75
2022/11/18 02:19:45;;;;;;;97.53;43.78;;;;;;;;;;1039075;28;20025;-75
2022/11/18 02:20:19;;;;;;;160.75;65.63;;;;;;;;;;1039654;28;20032;-75
2022/11/18 02:20:54;;;;;;;176.15;66.05;;;;;;;;;;1040088;28;20025;-75
2022/11/18 02:21:37;;;;;;;152.23;63.08;;;;;;;;;;1039621;28;20547;-75
2022/11/18 02:22:26;;;;;;;154.95;63.63;;;;;;;;;;1039371;28;20418;-75
2022/11/18 02:23:26;;;;;;;166.85;68.07;;;;;;;;;;1039129;28;20026;-75
2022/11/18 02:24:07;;;;;;;148.88;63.67;;;;;;;;;;1027300;28;20054;-75
2022/11/18 02:24:48;;;;;;;155.95;64.22;;;;;;;;;;1039370;28;20029;-74
2022/11/18 02:25:19;;;;;;;155.50;60.90;;;;;;;;;;1039387;28;20076;-75
2022/11/18 02:26:17;;;;;;;152.10;63.30;;;;;;;;;;1039498;28;20029;-76
2022/11/18 02:27:08;;;;;;;155.88;62.13;;;;;;;;;;1038998;28;20017;-75
2022/11/18 02:27:38;;;;;;;149.20;61.53;;;;;;;;;;1037370;28;20028;-75
2022/11/18 02:28:17;;;;;;;160.43;68.45;;;;;;;;;;1038656;28;20033;-75
2022/11/18 02:29:00;;;;;;;143.25;64.88;;;;;;;;;;1039338;28;20029;-74
2022/11/18 02:30:09;;;;;;;160.77;63.63;;;;;;;;;;1035499;28;20478;-74
2022/11/18 02:30:48;;;;;;;148.55;60.83;;;;;;;;;;1021399;29;20024;-75
2022/11/18 02:31:31;;;;;;;153.40;60.95;;;;;;;;;;1022220;29;20589;-76
2022/11/18 02:32:11;;;;;;;158.55;62.67;;;;;;;;;;1021773;29;20143;-75
2022/11/18 02:32:57;;;;;;;147.68;61.38;;;;;;;;;;1023073;28;20023;-75
2022/11/18 02:33:35;;;;;;;141.15;61.42;;;;;;;;;;1022571;28;20039;-75
2022/11/18 02:34:24;;;;;;;148.13;62.55;;;;;;;;;;1021161;29;20122;-75
2022/11/18 02:35:13;;;;;;;160.60;65.25;;;;;;;;;;1021228;29;20027;-76
2022/11/18 02:35:46;;;;;;;166.25;65.28;;;;;;;;;;1021949;29;21520;-74
2022/11/18 02:36:19;;;;;;;158.50;65.53;;;;;;;;;;1022662;29;20568;-77
2022/11/18 02:36:50;;;;;;;159.32;66.47;;;;;;;;;;1035077;28;20057;-74
2022/11/18 02:37:26;;;;;;;161.10;67.05;;;;;;;;;;1034845;28;20041;-76
2022/11/18 02:38:04;;;;;;;152.98;63.50;;;;;;;;;;1033161;28;20030;-75
2022/11/18 02:38:38;;;;;;;157.73;63.28;;;;;;;;;;1037669;28;20579;-74
2022/11/18 02:39:21;;;;;;;150.45;55.42;;;;;;;;;;1038298;28;20014;-76
2022/11/18 02:39:59;;;;;;;120.07;49.70;;;;;;;;;;1034291;28;20521;-76
2022/11/18 02:40:46;;;;;;;105.38;45.92;;;;;;;;;;1036765;28;20089;-75
2022/11/18 02:41:20;;;;;;;126.28;49.80;;;;;;;;;;1036119;28;20698;-75
2022/11/18 02:41:55;;;;;;;104.60;44.05;;;;;;;;;;1037546;28;20036;-75
2022/11/18 02:42:28;;;;;;;141.70;50.58;;;;;;;;;;1037861;28;20033;-74
2022/11/18 02:43:12;;;;;;;121.57;45.83;;;;;;;;;;1038313;28;20029;-74
2022/11/18 02:43:46;;;;;;;112.40;48.05;;;;;;;;;;1037780;28;20060;-74
2022/11/18 02:44:18;;;;;;;117.07;48.47;;;;;;;;;;1039195;28;20538;-76
2022/11/18 02:44:52;;;;;;;127.07;49.15;;;;;;;;;;1039214;28;20077;-77
2022/11/18 02:45:23;;;;;;;123.22;51.28;;;;;;;;;;1038211;28;20040;-75
2022/11/18 02:45:55;;;;;;;134.63;56.13;;;;;;;;;;1034228;28;20030;-76
2022/11/18 02:46:28;;;;;;;122.22;48.88;;;;;;;;;;1035931;28;20426;-76
2022/11/18 02:47:02;;;;;;;121.13;49.13;;;;;;;;;;1035135;28;20115;-76
2022/11/18 02:47:34;;;;;;;126.07;54.10;;;;;;;;;;1036774;28;20065;-76
2022/11/18 02:48:07;;;;;;;138.63;54.60;;;;;;;;;;1037335;28;20078;-75
2022/11/18 02:48:40;;;;;;;131.27;53.45;;;;;;;;;;1039973;28;20048;-76
2022/11/18 02:49:15;;;;;;;92.70;40.53;;;;;;;;;;1038899;28;20029;-76
2022/11/18 02:49:51;;;;;;;110.05;44.83;;;;;;;;;;1038391;28;20025;-76
2022/11/18 02:50:23;;;;;;;90.50;40.05;;;;;;;;;;1039685;28;20073;-74
2022/11/18 02:50:54;;;;;;;109.63;43.30;;;;;;;;;;1034960;28;20025;-75
2022/11/18 02:51:27;;;;;;;100.55;41.53;;;;;;;;;;1040173;28;20484;-75
2022/11/18 02:51:59;;;;;;;98.57;39.58;;;;;;;;;;1038648;28;20080;-76
2022/11/18 02:52:31;;;;;;;107.95;42.40;;;;;;;;;;1037021;28;20513;-75
2022/11/18 02:53:03;;;;;;;84.80;38.75;;;;;;;;;;1039150;28;20035;-75
2022/11/18 02:53:35;;;;;;;108.88;36.88;;;;;;;;;;1040193;28;20026;-76
2022/11/18 02:54:07;;;;;;;90.00;36.45;;;;;;;;;;1038445;28;20044;-75
2022/11/18 02:54:40;;;;;;;91.25;38.72;;;;;;;;;;1043794;28;20021;-75
2022/11/18 02:55:12;;;;;;;96.63;38.25;;;;;;;;;;1040468;28;20036;-76
2022/11/18 02:55:43;;;;;;;79.05;35.15;;;;;;;;;;1036588;28;20033;-76
2022/11/18 02:56:15;;;;;;;88.82;37.50;;;;;;;;;;1032888;28;20049;-74
2022/11/18 02:56:48;;;;;;;67.88;33.88;;;;;;;;;;1031718;28;20034;-75
2022/11/18 02:57:20;;;;;;;91.25;39.30;;;;;;;;;;1032431;28;20486;-75
2022/11/18 02:57:52;;;;;;;82.68;35.58;;;;;;;;;;1033440;28;20026;-76
2022/11/18 02:58:24;;;;;;;83.75;35.25;;;;;;;;;;1031673;28;20057;-76
2022/11/18 02:59:01;;;;;;;76.75;32.90;;;;;;;;;;1033870;28;20029;-75
2022/11/18 02:59:36;;;;;;;74.25;33.25;;;;;;;;;;1035377;28;20429;-75
2022/11/18 03:00:07;;;;;;;79.00;33.03;;;;;;;;;;1037545;28;20025;-76
2022/11/18 03:00:38;;;;;;;79.07;32.97;;;;;;;;;;1034360;28;20044;-76
2022/11/18 03:01:21;;;;;;;79.32;34.53;;;;;;;;;;1032315;28;20027;-76
2022/11/18 03:01:52;;;;;;;71.35;31.50;;;;;;;;;;1029137;28;20030;-76
2022/11/18 03:02:23;;;;;;;84.28;35.00;;;;;;;;;;1034258;28;20029;-76
2022/11/18 03:02:53;;;;;;;72.97;32.50;;;;;;;;;;1036350;28;20030;-75
2022/11/18 03:03:31;;;;;;;69.13;33.78;;;;;;;;;;1035739;28;20476;-75
2022/11/18 03:04:02;;;;;;;75.22;32.55;;;;;;;;;;1033045;28;20485;-75
2022/11/18 03:04:33;;;;;;;82.32;30.58;;;;;;;;;;1035335;28;20029;-75
2022/11/18 03:05:04;;;;;;;80.93;32.92;;;;;;;;;;1036177;28;20080;-75
2022/11/18 03:05:42;;;;;;;81.43;34.00;;;;;;;;;;1041807;28;20028;-75
2022/11/18 03:06:30;;;;;;;80.35;34.58;;;;;;;;;;1039982;28;20412;-75
2022/11/18 03:07:06;;;;;;;80.78;35.60;;;;;;;;;;1037849;28;20014;-75
2022/11/18 03:07:40;;;;;;;76.68;33.95;;;;;;;;;;1038774;28;20083;-75
2022/11/18 03:08:19;;;;;;;79.93;35.38;;;;;;;;;;1037537;28;20017;-75
2022/11/18 03:08:59;;;;;;;66.60;30.48;;;;;;;;;;1034240;28;20058;-75
2022/11/18 03:09:32;;;;;;;73.30;28.60;;;;;;;;;;1036693;28;20025;-76
2022/11/18 03:10:03;;;;;;;81.15;32.95;;;;;;;;;;1037480;28;20025;-76
2022/11/18 03:10:39;;;;;;;88.05;36.63;;;;;;;;;;1036390;28;20072;-75
2022/11/18 03:11:16;;;;;;;74.15;33.67;;;;;;;;;;1035909;28;20344;-75
2022/11/18 03:12:04;;;;;;;80.68;34.28;;;;;;;;;;1035741;28;20040;-75
2022/11/18 03:12:41;;;;;;;70.53;31.90;;;;;;;;;;1039042;28;20080;-75
2022/11/18 03:13:25;;;;;;;71.47;28.65;;;;;;;;;;1039575;28;20021;-76
2022/11/18 03:14:07;;;;;;;73.15;28.40;;;;;;;;;;1033351;28;20114;-76
2022/11/18 03:14:56;;;;;;;57.80;26.00;;;;;;;;;;1035491;28;20494;-75
2022/11/18 03:15:35;;;;;;;60.65;28.40;;;;;;;;;;1035786;28;20026;-75
2022/11/18 03:16:12;;;;;;;59.25;24.88;;;;;;;;;;1035306;28;20040;-76
2022/11/18 03:16:55;;;;;;;66.45;28.55;;;;;;;;;;1034306;28;20084;-76
2022/11/18 03:17:43;;;;;;;81.10;28.30;;;;;;;;;;1038318;28;20091;-76
2022/11/18 03:18:19;;;;;;;67.60;28.30;;;;;;;;;;1038437;28;20092;-75
2022/11/18 03:19:19;;;;;;;75.55;30.27;;;;;;;;;;1037651;28;20025;-75
2022/11/18 03:19:49;;;;;;;;;;;;;;;;;;1021140;29;20172;-76
2022/11/18 03:20:34;;;;;;;60.25;26.67;;;;;;;;;;1042495;28;19920;-76
2022/11/18 03:21:10;;;;;;;67.38;27.25;;;;;;;;;;1037671;28;20020;-76
2022/11/18 03:22:01;;;;;;;65.65;27.35;;;;;;;;;;1037954;28;20033;-75
2022/11/18 03:22:39;;;;;;;55.15;22.23;;;;;;;;;;1038247;28;20064;-77
2022/11/18 03:23:13;;;;;;;56.35;25.67;;;;;;;;;;1039574;28;20040;-76
2022/11/18 03:23:53;;;;;;;60.08;21.70;;;;;;;;;;1041002;28;20025;-75